Terminal Aerodrome Forecast
Issued by NWS Charleston, WV

Current Version | Previous Version | Graphics & Text | Print | Product List | Glossary On
Versions: 1 2 3 4 5 6 7 8 9 10 11 12 13 14 15 16 17 18 19 20 21 22 23 24 25 26
000
FTUS41 KRLX 311446 AAA
TAFEKN
TAF AMD
KEKN 311446Z 3115/0112 28004KT P6SM SKC
     FM311600 31006KT P6SM SCT250
     FM010800 VRB02KT 3SM BR SCT060
     FM011000 00000KT 2SM BR SCT001 SCT060=

USA.gov is the U.S. government's official web portal to all federal, state and local government web resources and services.